sensor_id;sensor_type;location;lat;lon;timestamp;pressure;altitude;pressure_sealevel;temperature;humidity
53340;BME280;46212;50.258;19.062;2023-03-12T00:01:23;97863.69;;;0.17;79.64
53340;BME280;46212;50.258;19.062;2023-03-12T00:03:49;97858.53;;;-0.08;79.01
53340;BME280;46212;50.258;19.062;2023-03-12T00:06:16;97865.25;;;-0.23;80.37
53340;BME280;46212;50.258;19.062;2023-03-12T00:08:42;97848.75;;;-0.02;79.69
53340;BME280;46212;50.258;19.062;2023-03-12T00:11:10;97859.78;;;-0.16;79.74
53340;BME280;46212;50.258;19.062;2023-03-12T00:13:36;97856.56;;;-0.45;79.66
53340;BME280;46212;50.258;19.062;2023-03-12T00:16:13;97870.72;;;-0.27;79.54
53340;BME280;46212;50.258;19.062;2023-03-12T00:18:39;97874.28;;;-0.37;78.97
53340;BME280;46212;50.258;19.062;2023-03-12T00:21:05;97875.06;;;0.05;77.06
53340;BME280;46212;50.258;19.062;2023-03-12T00:23:31;97881.03;;;0.26;74.12
53340;BME280;46212;50.258;19.062;2023-03-12T00:26:04;97876.94;;;0.11;73.67
53340;BME280;46212;50.258;19.062;2023-03-12T00:28:30;97880.81;;;0.10;73.85
53340;BME280;46212;50.258;19.062;2023-03-12T00:30:56;97877.28;;;-0.24;74.87
53340;BME280;46212;50.258;19.062;2023-03-12T00:33:25;97877.59;;;-0.63;77.13
53340;BME280;46212;50.258;19.062;2023-03-12T00:35:51;97898.75;;;-0.44;77.59
53340;BME280;46212;50.258;19.062;2023-03-12T00:38:16;97900.25;;;-0.36;76.67
53340;BME280;46212;50.258;19.062;2023-03-12T00:40:42;97890.03;;;-0.69;76.97
53340;BME280;46212;50.258;19.062;2023-03-12T00:43:08;97897.81;;;-0.71;77.67
53340;BME280;46212;50.258;19.062;2023-03-12T00:45:33;97887.75;;;-0.71;77.68
53340;BME280;46212;50.258;19.062;2023-03-12T00:47:58;97907.34;;;-0.52;77.83
53340;BME280;46212;50.258;19.062;2023-03-12T00:50:24;97882.72;;;-0.72;78.28
53340;BME280;46212;50.258;19.062;2023-03-12T00:52:50;97902.28;;;-0.50;78.77
53340;BME280;46212;50.258;19.062;2023-03-12T00:55:15;97897.31;;;-0.56;78.61
53340;BME280;46212;50.258;19.062;2023-03-12T00:57:41;97907.00;;;-0.55;79.03
53340;BME280;46212;50.258;19.062;2023-03-12T01:00:07;97893.00;;;-0.05;77.56
53340;BME280;46212;50.258;19.062;2023-03-12T01:02:38;97895.06;;;-0.16;77.35
53340;BME280;46212;50.258;19.062;2023-03-12T01:05:05;97920.06;;;-0.39;78.37
53340;BME280;46212;50.258;19.062;2023-03-12T01:07:31;97910.00;;;-0.42;78.78
53340;BME280;46212;50.258;19.062;2023-03-12T01:09:56;97900.13;;;-0.70;79.05
53340;BME280;46212;50.258;19.062;2023-03-12T01:12:22;97900.28;;;-0.39;79.20
53340;BME280;46212;50.258;19.062;2023-03-12T01:14:48;97901.59;;;-0.58;79.21
53340;BME280;46212;50.258;19.062;2023-03-12T01:17:13;97886.97;;;-0.71;79.50
53340;BME280;46212;50.258;19.062;2023-03-12T01:19:39;97899.97;;;-0.48;79.32
53340;BME280;46212;50.258;19.062;2023-03-12T01:22:04;97904.41;;;-0.76;79.89
53340;BME280;46212;50.258;19.062;2023-03-12T01:24:29;97886.38;;;-1.00;80.78
53340;BME280;46212;50.258;19.062;2023-03-12T01:26:55;97891.97;;;-0.66;80.31
53340;BME280;46212;50.258;19.062;2023-03-12T01:29:21;97888.41;;;-0.60;80.29
53340;BME280;46212;50.258;19.062;2023-03-12T01:31:46;97886.97;;;-0.71;80.63
53340;BME280;46212;50.258;19.062;2023-03-12T01:34:12;97890.19;;;-0.87;81.13
53340;BME280;46212;50.258;19.062;2023-03-12T01:36:38;97885.84;;;-0.74;80.78
53340;BME280;46212;50.258;19.062;2023-03-12T01:39:03;97890.03;;;-1.31;82.10
53340;BME280;46212;50.258;19.062;2023-03-12T01:41:30;97877.31;;;-1.41;83.22
53340;BME280;46212;50.258;19.062;2023-03-12T01:43:57;97897.34;;;-1.18;83.25
53340;BME280;46212;50.258;19.062;2023-03-12T01:46:41;97893.47;;;-1.24;83.25
53340;BME280;46212;50.258;19.062;2023-03-12T01:54:11;97894.66;;;-1.28;83.24
53340;BME280;46212;50.258;19.062;2023-03-12T01:56:39;97903.97;;;-1.36;84.03
53340;BME280;46212;50.258;19.062;2023-03-12T01:59:13;97895.13;;;-1.44;83.41
53340;BME280;46212;50.258;19.062;2023-03-12T02:01:40;97914.09;;;-1.51;83.63
53340;BME280;46212;50.258;19.062;2023-03-12T02:04:06;97899.09;;;-1.73;84.55
53340;BME280;46212;50.258;19.062;2023-03-12T02:06:37;97898.72;;;-1.72;85.02
53340;BME280;46212;50.258;19.062;2023-03-12T02:09:06;97921.44;;;-1.48;84.99
53340;BME280;46212;50.258;19.062;2023-03-12T02:11:31;97909.09;;;-1.56;84.84
53340;BME280;46212;50.258;19.062;2023-03-12T02:13:57;97921.88;;;-1.53;84.18
53340;BME280;46212;50.258;19.062;2023-03-12T02:16:23;97921.50;;;-1.66;84.53
53340;BME280;46212;50.258;19.062;2023-03-12T02:18:50;97906.50;;;-1.95;85.47
53340;BME280;46212;50.258;19.062;2023-03-12T02:21:21;97925.34;;;-1.56;84.86
53340;BME280;46212;50.258;19.062;2023-03-12T02:24:00;97925.03;;;-1.86;85.26
53340;BME280;46212;50.258;19.062;2023-03-12T02:26:28;97920.03;;;-1.91;86.28
53340;BME280;46212;50.258;19.062;2023-03-12T02:28:55;97930.44;;;-1.83;86.00
53340;BME280;46212;50.258;19.062;2023-03-12T02:31:23;97933.16;;;-1.90;85.95
53340;BME280;46212;50.258;19.062;2023-03-12T02:33:50;97938.56;;;-1.93;86.39
53340;BME280;46212;50.258;19.062;2023-03-12T02:36:18;97937.44;;;-2.17;86.49
53340;BME280;46212;50.258;19.062;2023-03-12T02:38:49;97940.53;;;-2.19;87.20
53340;BME280;46212;50.258;19.062;2023-03-12T02:41:20;97952.13;;;-2.11;87.35
53340;BME280;46212;50.258;19.062;2023-03-12T02:43:50;97951.75;;;-2.13;87.01
53340;BME280;46212;50.258;19.062;2023-03-12T02:46:20;97950.97;;;-2.17;87.52
53340;BME280;46212;50.258;19.062;2023-03-12T02:48:45;97955.63;;;-2.07;86.95
53340;BME280;46212;50.258;19.062;2023-03-12T02:51:11;97957.53;;;-2.18;87.00
53340;BME280;46212;50.258;19.062;2023-03-12T02:53:36;97967.59;;;-2.26;87.69
53340;BME280;46212;50.258;19.062;2023-03-12T02:56:02;97961.78;;;-2.31;87.59
53340;BME280;46212;50.258;19.062;2023-03-12T02:58:28;97950.22;;;-2.42;87.42
53340;BME280;46212;50.258;19.062;2023-03-12T03:00:53;97954.44;;;-2.34;87.61
53340;BME280;46212;50.258;19.062;2023-03-12T03:03:18;97942.47;;;-2.47;87.92
53340;BME280;46212;50.258;19.062;2023-03-12T03:05:44;97971.06;;;-2.25;87.77
53340;BME280;46212;50.258;19.062;2023-03-12T03:08:09;97978.41;;;-2.22;87.35
53340;BME280;46212;50.258;19.062;2023-03-12T03:10:35;97970.28;;;-2.43;87.45
53340;BME280;46212;50.258;19.062;2023-03-12T03:13:00;97991.16;;;-2.33;87.59
53340;BME280;46212;50.258;19.062;2023-03-12T03:15:26;97995.00;;;-2.45;87.66
53340;BME280;46212;50.258;19.062;2023-03-12T03:17:51;97977.22;;;-2.46;87.76
53340;BME280;46212;50.258;19.062;2023-03-12T03:20:17;97980.72;;;-2.45;87.90
53340;BME280;46212;50.258;19.062;2023-03-12T03:22:42;97978.00;;;-2.56;87.75
53340;BME280;46212;50.258;19.062;2023-03-12T03:25:09;98002.38;;;-2.21;87.14
53340;BME280;46212;50.258;19.062;2023-03-12T03:27:34;97976.09;;;-2.17;86.10
53340;BME280;46212;50.258;19.062;2023-03-12T03:30:00;97985.75;;;-2.33;86.49
53340;BME280;46212;50.258;19.062;2023-03-12T03:32:26;97999.63;;;-2.49;86.72
53340;BME280;46212;50.258;19.062;2023-03-12T03:34:52;97999.66;;;-2.38;86.94
53340;BME280;46212;50.258;19.062;2023-03-12T03:37:17;98006.97;;;-2.28;86.42
53340;BME280;46212;50.258;19.062;2023-03-12T03:39:42;98003.50;;;-2.46;86.79
53340;BME280;46212;50.258;19.062;2023-03-12T03:42:08;97990.75;;;-2.63;86.71
53340;BME280;46212;50.258;19.062;2023-03-12T03:44:33;97993.06;;;-2.55;86.51
53340;BME280;46212;50.258;19.062;2023-03-12T03:46:59;98009.69;;;-2.28;85.42
53340;BME280;46212;50.258;19.062;2023-03-12T03:49:25;98018.19;;;-2.30;84.84
53340;BME280;46212;50.258;19.062;2023-03-12T03:51:50;98017.81;;;-2.32;84.70
53340;BME280;46212;50.258;19.062;2023-03-12T03:54:16;98020.13;;;-2.48;84.84
53340;BME280;46212;50.258;19.062;2023-03-12T03:56:42;98027.44;;;-2.38;84.58
53340;BME280;46212;50.258;19.062;2023-03-12T03:59:08;98019.75;;;-2.36;84.51
53340;BME280;46212;50.258;19.062;2023-03-12T04:01:33;98000.78;;;-2.57;84.10
53340;BME280;46212;50.258;19.062;2023-03-12T04:03:59;98020.47;;;-2.49;84.11
53340;BME280;46212;50.258;19.062;2023-03-12T04:06:24;98009.69;;;-2.46;83.20
53340;BME280;46212;50.258;19.062;2023-03-12T04:08:50;98010.06;;;-2.58;83.72
53340;BME280;46212;50.258;19.062;2023-03-12T04:11:17;98021.25;;;-2.49;84.34
53340;BME280;46212;50.258;19.062;2023-03-12T04:13:44;98025.94;;;-2.21;82.68
53340;BME280;46212;50.258;19.062;2023-03-12T04:16:10;98024.38;;;-2.40;82.54
53340;BME280;46212;50.258;19.062;2023-03-12T04:18:36;98018.94;;;-2.50;82.87
53340;BME280;46212;50.258;19.062;2023-03-12T04:21:04;98015.09;;;-2.46;82.67
53340;BME280;46212;50.258;19.062;2023-03-12T04:23:30;98022.00;;;-2.59;82.84
53340;BME280;46212;50.258;19.062;2023-03-12T04:25:56;98013.56;;;-2.33;82.18
53340;BME280;46212;50.258;19.062;2023-03-12T04:28:21;98034.44;;;-2.26;80.96
53340;BME280;46212;50.258;19.062;2023-03-12T04:31:01;98032.09;;;-2.24;80.48
53340;BME280;46212;50.258;19.062;2023-03-12T04:33:28;98031.34;;;-2.10;80.15
53340;BME280;46212;50.258;19.062;2023-03-12T04:35:54;98017.75;;;-2.56;79.81
53340;BME280;46212;50.258;19.062;2023-03-12T04:38:21;98030.56;;;-2.32;79.94
53340;BME280;46212;50.258;19.062;2023-03-12T04:40:59;98031.72;;;-2.33;79.13
53340;BME280;46212;50.258;19.062;2023-03-12T04:43:25;98031.28;;;-2.53;79.26
53340;BME280;46212;50.258;19.062;2023-03-12T04:45:50;98041.34;;;-2.46;79.74
53340;BME280;46212;50.258;19.062;2023-03-12T04:48:16;98034.03;;;-2.42;78.61
53340;BME280;46212;50.258;19.062;2023-03-12T04:50:41;98044.03;;;-2.53;78.52
53340;BME280;46212;50.258;19.062;2023-03-12T04:53:07;98031.28;;;-2.49;78.60
53340;BME280;46212;50.258;19.062;2023-03-12T04:55:33;98052.19;;;-2.39;78.17
53340;BME280;46212;50.258;19.062;2023-03-12T04:57:58;98038.69;;;-2.29;77.90
53340;BME280;46212;50.258;19.062;2023-03-12T05:00:24;98044.09;;;-2.29;77.59
53340;BME280;46212;50.258;19.062;2023-03-12T05:02:50;98051.06;;;-2.17;76.75
53340;BME280;46212;50.258;19.062;2023-03-12T05:05:15;98053.00;;;-2.10;76.61
53340;BME280;46212;50.258;19.062;2023-03-12T05:07:41;98059.16;;;-2.03;76.14
53340;BME280;46212;50.258;19.062;2023-03-12T05:10:07;98041.00;;;-2.24;76.15
53340;BME280;46212;50.258;19.062;2023-03-12T05:12:33;98053.38;;;-2.08;75.92
53340;BME280;46212;50.258;19.062;2023-03-12T05:14:58;98052.19;;;-2.25;76.36
53340;BME280;46212;50.258;19.062;2023-03-12T05:17:24;98060.72;;;-2.23;76.13
53340;BME280;46212;50.258;19.062;2023-03-12T05:19:49;98048.72;;;-2.36;76.34
53340;BME280;46212;50.258;19.062;2023-03-12T05:22:15;98064.56;;;-2.24;76.39
53340;BME280;46212;50.258;19.062;2023-03-12T05:24:41;98065.38;;;-1.88;75.83
53340;BME280;46212;50.258;19.062;2023-03-12T05:27:06;98075.41;;;-2.10;75.54
53340;BME280;46212;50.258;19.062;2023-03-12T05:29:33;98070.41;;;-2.01;75.20
53340;BME280;46212;50.258;19.062;2023-03-12T05:32:00;98083.56;;;-1.82;75.35
53340;BME280;46212;50.258;19.062;2023-03-12T05:34:26;98062.28;;;-1.90;75.05
53340;BME280;46212;50.258;19.062;2023-03-12T05:36:55;98083.94;;;-1.62;74.99
53340;BME280;46212;50.258;19.062;2023-03-12T05:39:20;98095.53;;;-1.72;74.27
53340;BME280;46212;50.258;19.062;2023-03-12T05:41:46;98096.31;;;-1.79;75.00
53340;BME280;46212;50.258;19.062;2023-03-12T05:44:12;98087.78;;;-1.74;74.66
53340;BME280;46212;50.258;19.062;2023-03-12T05:46:41;98102.88;;;-1.76;74.58
53340;BME280;46212;50.258;19.062;2023-03-12T05:49:07;98104.44;;;-1.47;73.99
53340;BME280;46212;50.258;19.062;2023-03-12T05:51:33;98089.72;;;-1.46;74.06
53340;BME280;46212;50.258;19.062;2023-03-12T05:53:58;98110.97;;;-1.23;73.58
53340;BME280;46212;50.258;19.062;2023-03-12T05:56:24;98103.59;;;-1.05;72.91
53340;BME280;46212;50.258;19.062;2023-03-12T05:58:50;98093.13;;;-1.10;72.80
53340;BME280;46212;50.258;19.062;2023-03-12T06:01:18;98107.09;;;-1.12;72.42
53340;BME280;46212;50.258;19.062;2023-03-12T06:03:44;98111.69;;;-0.94;71.65
53340;BME280;46212;50.258;19.062;2023-03-12T06:06:10;98119.50;;;-1.18;71.70
53340;BME280;46212;50.258;19.062;2023-03-12T06:08:35;98117.06;;;-0.73;70.97
53340;BME280;46212;50.258;19.062;2023-03-12T06:11:01;98124.44;;;-0.88;70.37
53340;BME280;46212;50.258;19.062;2023-03-12T06:13:26;98103.44;;;-0.59;69.57
53340;BME280;46212;50.258;19.062;2023-03-12T06:15:53;98128.63;;;-0.62;69.69
53340;BME280;46212;50.258;19.062;2023-03-12T06:18:18;98113.13;;;-0.58;69.11
53340;BME280;46212;50.258;19.062;2023-03-12T06:20:44;98133.69;;;-0.75;70.49
53340;BME280;46212;50.258;19.062;2023-03-12T06:23:10;98138.69;;;-0.59;69.83
53340;BME280;46212;50.258;19.062;2023-03-12T06:25:36;98142.03;;;-0.27;69.72
53340;BME280;46212;50.258;19.062;2023-03-12T06:28:01;98149.03;;;-0.29;68.13
53340;BME280;46212;50.258;19.062;2023-03-12T06:30:27;98142.94;;;-0.55;68.38
53340;BME280;46212;50.258;19.062;2023-03-12T06:32:53;98129.38;;;-0.58;69.03
53340;BME280;46212;50.258;19.062;2023-03-12T06:35:18;98143.25;;;-0.38;68.05
53340;BME280;46212;50.258;19.062;2023-03-12T06:37:44;98134.25;;;-0.18;67.27
53340;BME280;46212;50.258;19.062;2023-03-12T06:40:10;98158.22;;;-0.09;67.66
53340;BME280;46212;50.258;19.062;2023-03-12T06:42:37;98144.66;;;-0.13;67.02
53340;BME280;46212;50.258;19.062;2023-03-12T06:45:03;98143.50;;;-0.12;66.21
53340;BME280;46212;50.258;19.062;2023-03-12T06:47:28;98160.59;;;-0.18;67.24
53340;BME280;46212;50.258;19.062;2023-03-12T06:49:54;98165.25;;;0.50;66.33
53340;BME280;46212;50.258;19.062;2023-03-12T06:52:19;98148.19;;;0.46;65.16
53340;BME280;46212;50.258;19.062;2023-03-12T06:54:45;98155.03;;;0.07;66.04
53340;BME280;46212;50.258;19.062;2023-03-12T06:57:10;98177.13;;;0.16;66.27
53340;BME280;46212;50.258;19.062;2023-03-12T06:59:36;98169.06;;;-0.09;66.76
53340;BME280;46212;50.258;19.062;2023-03-12T07:02:01;98164.38;;;0.06;66.84
53340;BME280;46212;50.258;19.062;2023-03-12T07:04:26;98166.16;;;0.30;66.49
53340;BME280;46212;50.258;19.062;2023-03-12T07:06:52;98163.47;;;0.23;66.72
53340;BME280;46212;50.258;19.062;2023-03-12T07:09:19;98162.28;;;0.27;65.93
53340;BME280;46212;50.258;19.062;2023-03-12T07:11:44;98162.22;;;0.86;63.85
53340;BME280;46212;50.258;19.062;2023-03-12T07:14:10;98168.44;;;0.83;63.80
53340;BME280;46212;50.258;19.062;2023-03-12T07:16:35;98159.28;;;1.11;63.45
53340;BME280;46212;50.258;19.062;2023-03-12T07:19:01;98151.94;;;0.63;63.37
53340;BME280;46212;50.258;19.062;2023-03-12T07:21:28;98165.25;;;0.47;64.92
53340;BME280;46212;50.258;19.062;2023-03-12T07:23:54;98152.03;;;0.52;64.32
53340;BME280;46212;50.258;19.062;2023-03-12T07:26:19;98171.22;;;0.79;64.89
53340;BME280;46212;50.258;19.062;2023-03-12T07:28:45;98164.25;;;0.75;65.18
53340;BME280;46212;50.258;19.062;2023-03-12T07:31:10;98167.16;;;0.53;65.14
53340;BME280;46212;50.258;19.062;2023-03-12T07:33:36;98164.63;;;0.25;63.64
53340;BME280;46212;50.258;19.062;2023-03-12T07:36:02;98192.44;;;0.43;64.63
53340;BME280;46212;50.258;19.062;2023-03-12T07:38:28;98164.66;;;0.73;64.43
53340;BME280;46212;50.258;19.062;2023-03-12T07:40:54;98182.53;;;0.71;63.42
53340;BME280;46212;50.258;19.062;2023-03-12T07:43:21;98174.09;;;1.02;63.04
53340;BME280;46212;50.258;19.062;2023-03-12T07:45:47;98170.63;;;0.98;62.27
53340;BME280;46212;50.258;19.062;2023-03-12T07:48:13;98183.31;;;1.16;63.03
53340;BME280;46212;50.258;19.062;2023-03-12T07:50:39;98172.69;;;0.87;64.18
53340;BME280;46212;50.258;19.062;2023-03-12T07:53:05;98164.25;;;1.19;63.46
53340;BME280;46212;50.258;19.062;2023-03-12T07:55:33;98169.63;;;1.26;63.55
53340;BME280;46212;50.258;19.062;2023-03-12T07:57:58;98163.13;;;0.72;62.60
53340;BME280;46212;50.258;19.062;2023-03-12T08:00:25;98189.06;;;0.80;63.01
53340;BME280;46212;50.258;19.062;2023-03-12T08:02:51;98175.72;;;0.96;61.35
53340;BME280;46212;50.258;19.062;2023-03-12T08:05:16;98156.41;;;1.25;60.55
53340;BME280;46212;50.258;19.062;2023-03-12T08:07:42;98167.41;;;1.14;59.11
53340;BME280;46212;50.258;19.062;2023-03-12T08:10:09;98175.31;;;1.39;59.67
53340;BME280;46212;50.258;19.062;2023-03-12T08:12:35;98182.44;;;1.59;59.71
53340;BME280;46212;50.258;19.062;2023-03-12T08:15:05;98191.44;;;1.56;58.96
53340;BME280;46212;50.258;19.062;2023-03-12T08:17:30;98177.91;;;1.49;58.78
53340;BME280;46212;50.258;19.062;2023-03-12T08:19:56;98185.31;;;1.49;59.88
53340;BME280;46212;50.258;19.062;2023-03-12T08:22:21;98182.91;;;1.54;59.39
53340;BME280;46212;50.258;19.062;2023-03-12T08:24:46;98203.72;;;1.68;59.42
53340;BME280;46212;50.258;19.062;2023-03-12T08:27:12;98200.38;;;1.57;59.45
53340;BME280;46212;50.258;19.062;2023-03-12T08:29:39;98196.50;;;1.54;60.07
53340;BME280;46212;50.258;19.062;2023-03-12T08:32:04;98203.69;;;1.72;58.94
53340;BME280;46212;50.258;19.062;2023-03-12T08:34:30;98196.22;;;1.45;59.76
53340;BME280;46212;50.258;19.062;2023-03-12T08:36:55;98207.00;;;1.90;59.63
53340;BME280;46212;50.258;19.062;2023-03-12T08:39:20;98202.44;;;1.80;59.57
53340;BME280;46212;50.258;19.062;2023-03-12T08:41:46;98198.81;;;1.56;59.99
53340;BME280;46212;50.258;19.062;2023-03-12T08:44:11;98205.75;;;1.64;60.51
53340;BME280;46212;50.258;19.062;2023-03-12T08:46:37;98205.44;;;1.89;59.84
53340;BME280;46212;50.258;19.062;2023-03-12T08:49:02;98202.06;;;1.78;59.30
53340;BME280;46212;50.258;19.062;2023-03-12T08:51:28;98202.97;;;1.68;61.11
53340;BME280;46212;50.258;19.062;2023-03-12T08:53:53;98201.63;;;2.13;60.39
53340;BME280;46212;50.258;19.062;2023-03-12T08:56:19;98228.34;;;2.25;59.69
53340;BME280;46212;50.258;19.062;2023-03-12T08:58:44;98208.22;;;2.16;59.83
53340;BME280;46212;50.258;19.062;2023-03-12T09:01:12;98221.84;;;2.16;60.08
53340;BME280;46212;50.258;19.062;2023-03-12T09:03:37;98209.63;;;2.27;60.42
53340;BME280;46212;50.258;19.062;2023-03-12T09:06:09;98215.59;;;2.19;60.07
53340;BME280;46212;50.258;19.062;2023-03-12T09:08:40;98208.00;;;2.03;60.31
53340;BME280;46212;50.258;19.062;2023-03-12T09:11:08;98207.84;;;2.13;59.66
53340;BME280;46212;50.258;19.062;2023-03-12T09:13:34;98212.72;;;1.99;60.46
53340;BME280;46212;50.258;19.062;2023-03-12T09:16:01;98200.28;;;1.98;60.77
53340;BME280;46212;50.258;19.062;2023-03-12T09:18:27;98200.28;;;2.28;60.34
53340;BME280;46212;50.258;19.062;2023-03-12T09:20:54;98201.03;;;2.29;58.82
53340;BME280;46212;50.258;19.062;2023-03-12T09:23:19;98205.72;;;2.55;59.11
53340;BME280;46212;50.258;19.062;2023-03-12T09:25:45;98203.81;;;2.79;58.90
53340;BME280;46212;50.258;19.062;2023-03-12T09:28:11;98203.03;;;2.78;58.37
53340;BME280;46212;50.258;19.062;2023-03-12T09:30:37;98195.63;;;3.02;57.76
53340;BME280;46212;50.258;19.062;2023-03-12T09:33:03;98210.44;;;3.24;57.56
53340;BME280;46212;50.258;19.062;2023-03-12T09:35:29;98204.63;;;3.45;57.03
53340;BME280;46212;50.258;19.062;2023-03-12T09:37:56;98191.66;;;3.49;56.34
53340;BME280;46212;50.258;19.062;2023-03-12T09:40:24;98201.28;;;3.77;56.68
53340;BME280;46212;50.258;19.062;2023-03-12T09:43:00;98212.63;;;3.75;55.76
53340;BME280;46212;50.258;19.062;2023-03-12T09:45:30;98199.19;;;3.85;55.35
53340;BME280;46212;50.258;19.062;2023-03-12T09:48:02;98196.31;;;3.92;55.55
53340;BME280;46212;50.258;19.062;2023-03-12T09:53:02;98213.13;;;3.70;56.12
53340;BME280;46212;50.258;19.062;2023-03-12T09:55:38;98220.41;;;3.97;54.77
53340;BME280;46212;50.258;19.062;2023-03-12T09:58:13;98205.22;;;3.76;56.07
53340;BME280;46212;50.258;19.062;2023-03-12T10:00:41;98204.56;;;3.68;55.51
53340;BME280;46212;50.258;19.062;2023-03-12T10:03:32;98198.13;;;3.39;56.55
53340;BME280;46212;50.258;19.062;2023-03-12T10:06:15;98188.22;;;4.24;55.58
53340;BME280;46212;50.258;19.062;2023-03-12T10:11:30;98190.31;;;4.16;55.49
53340;BME280;46212;50.258;19.062;2023-03-12T10:22:18;98186.91;;;5.13;53.84
53340;BME280;46212;50.258;19.062;2023-03-12T10:27:40;98184.75;;;5.20;53.07
53340;BME280;46212;50.258;19.062;2023-03-12T10:30:17;98181.72;;;5.47;54.00
53340;BME280;46212;50.258;19.062;2023-03-12T10:32:55;98180.28;;;4.98;53.15
53340;BME280;46212;50.258;19.062;2023-03-12T10:35:23;98189.06;;;5.05;52.72
53340;BME280;46212;50.258;19.062;2023-03-12T10:37:57;98203.44;;;5.09;51.89
53340;BME280;46212;50.258;19.062;2023-03-12T10:40:29;98199.88;;;4.44;53.53
53340;BME280;46212;50.258;19.062;2023-03-12T10:42:55;98198.72;;;4.61;53.07
53340;BME280;46212;50.258;19.062;2023-03-12T10:48:07;98218.03;;;4.87;53.42
53340;BME280;46212;50.258;19.062;2023-03-12T10:50:36;98205.22;;;4.67;52.35
53340;BME280;46212;50.258;19.062;2023-03-12T10:55:37;98193.25;;;4.94;52.35
53340;BME280;46212;50.258;19.062;2023-03-12T10:58:03;98202.81;;;5.18;51.82
53340;BME280;46212;50.258;19.062;2023-03-12T11:00:30;98202.47;;;5.16;51.06
53340;BME280;46212;50.258;19.062;2023-03-12T11:05:33;98210.31;;;5.46;50.88
53340;BME280;46212;50.258;19.062;2023-03-12T11:08:00;98209.94;;;5.60;50.49
53340;BME280;46212;50.258;19.062;2023-03-12T11:10:41;98198.03;;;5.22;51.98
53340;BME280;46212;50.258;19.062;2023-03-12T11:13:34;98200.59;;;5.13;51.02
53340;BME280;46212;50.258;19.062;2023-03-12T11:16:23;98214.19;;;5.32;50.62
53340;BME280;46212;50.258;19.062;2023-03-12T11:18:58;98190.63;;;5.51;50.79
53340;BME280;46212;50.258;19.062;2023-03-12T11:21:26;98211.03;;;5.02;51.22
53340;BME280;46212;50.258;19.062;2023-03-12T11:26:27;98201.88;;;5.98;50.68
53340;BME280;46212;50.258;19.062;2023-03-12T11:29:15;98185.81;;;6.38;49.19
53340;BME280;46212;50.258;19.062;2023-03-12T11:31:48;98198.13;;;6.71;48.75
53340;BME280;46212;50.258;19.062;2023-03-12T11:34:28;98198.00;;;6.37;48.37
53340;BME280;46212;50.258;19.062;2023-03-12T11:37:06;98207.41;;;6.23;47.64
53340;BME280;46212;50.258;19.062;2023-03-12T11:47:52;98219.06;;;6.27;47.97
53340;BME280;46212;50.258;19.062;2023-03-12T11:50:26;98209.94;;;7.06;46.00
53340;BME280;46212;50.258;19.062;2023-03-12T12:14:34;98184.09;;;8.59;44.36
53340;BME280;46212;50.258;19.062;2023-03-12T12:25:50;98192.44;;;8.25;42.68
53340;BME280;46212;50.258;19.062;2023-03-12T12:37:24;98186.72;;;7.67;44.87
53340;BME280;46212;50.258;19.062;2023-03-12T12:40:12;98195.38;;;8.09;43.17
53340;BME280;46212;50.258;19.062;2023-03-12T12:45:32;98213.38;;;8.00;42.10
53340;BME280;46212;50.258;19.062;2023-03-12T12:48:06;98176.19;;;8.79;40.51
53340;BME280;46212;50.258;19.062;2023-03-12T12:50:37;98182.66;;;8.45;41.20
53340;BME280;46212;50.258;19.062;2023-03-12T12:53:14;98177.53;;;8.66;39.30
53340;BME280;46212;50.258;19.062;2023-03-12T12:56:18;98186.38;;;8.61;39.67
53340;BME280;46212;50.258;19.062;2023-03-12T13:01:15;98194.59;;;8.91;39.23
53340;BME280;46212;50.258;19.062;2023-03-12T13:03:42;98180.47;;;9.66;39.68
53340;BME280;46212;50.258;19.062;2023-03-12T13:06:08;98172.16;;;10.29;37.92
53340;BME280;46212;50.258;19.062;2023-03-12T13:14:13;98177.81;;;10.35;34.74
53340;BME280;46212;50.258;19.062;2023-03-12T13:16:43;98179.03;;;10.25;35.33
53340;BME280;46212;50.258;19.062;2023-03-12T13:21:40;98181.22;;;9.84;35.53
53340;BME280;46212;50.258;19.062;2023-03-12T13:24:32;98181.97;;;10.21;34.60
53340;BME280;46212;50.258;19.062;2023-03-12T13:27:23;98176.91;;;10.29;34.27
53340;BME280;46212;50.258;19.062;2023-03-12T13:29:50;98191.66;;;9.98;35.30
53340;BME280;46212;50.258;19.062;2023-03-12T13:34:58;98188.50;;;10.51;34.04
53340;BME280;46212;50.258;19.062;2023-03-12T13:43:14;98187.69;;;9.45;35.25
53340;BME280;46212;50.258;19.062;2023-03-12T13:48:15;98181.84;;;10.66;33.80
53340;BME280;46212;50.258;19.062;2023-03-12T13:50:50;98165.63;;;11.16;32.82
53340;BME280;46212;50.258;19.062;2023-03-12T13:53:22;98186.13;;;10.17;33.55
53340;BME280;46212;50.258;19.062;2023-03-12T13:55:59;98184.47;;;9.83;34.71
53340;BME280;46212;50.258;19.062;2023-03-12T13:58:26;98196.22;;;9.29;35.91
53340;BME280;46212;50.258;19.062;2023-03-12T14:01:02;98198.03;;;8.65;37.28
53340;BME280;46212;50.258;19.062;2023-03-12T14:03:36;98189.03;;;8.73;37.34
53340;BME280;46212;50.258;19.062;2023-03-12T14:08:56;98193.91;;;10.78;33.44
53340;BME280;46212;50.258;19.062;2023-03-12T14:11:50;98196.53;;;12.30;31.34
53340;BME280;46212;50.258;19.062;2023-03-12T14:14:30;98199.94;;;10.68;33.35
53340;BME280;46212;50.258;19.062;2023-03-12T14:17:03;98181.97;;;10.21;34.85
53340;BME280;46212;50.258;19.062;2023-03-12T14:19:32;98195.78;;;10.03;35.48
53340;BME280;46212;50.258;19.062;2023-03-12T14:22:02;98188.59;;;9.78;35.88
53340;BME280;46212;50.258;19.062;2023-03-12T14:25:05;98211.13;;;8.91;37.83
53340;BME280;46212;50.258;19.062;2023-03-12T14:27:36;98203.03;;;8.57;38.75
53340;BME280;46212;50.258;19.062;2023-03-12T14:32:41;98208.03;;;9.38;36.91
53340;BME280;46212;50.258;19.062;2023-03-12T14:38:06;98217.53;;;8.88;37.10
53340;BME280;46212;50.258;19.062;2023-03-12T14:40:42;98205.09;;;9.24;37.23
53340;BME280;46212;50.258;19.062;2023-03-12T14:43:28;98201.00;;;8.88;37.38
53340;BME280;46212;50.258;19.062;2023-03-12T14:45:55;98218.63;;;8.29;39.41
53340;BME280;46212;50.258;19.062;2023-03-12T14:48:23;98214.38;;;8.16;39.85
53340;BME280;46212;50.258;19.062;2023-03-12T14:50:51;98196.50;;;7.89;40.60
53340;BME280;46212;50.258;19.062;2023-03-12T14:59:18;98211.69;;;8.25;40.77